sensor_id;sensor_type;location;lat;lon;timestamp;temperature;humidity
37300;DHT22;23184;51.902;12.836;2023-05-19T00:01:11;9.60;99.90
37300;DHT22;23184;51.902;12.836;2023-05-19T00:03:39;9.60;99.90
37300;DHT22;23184;51.902;12.836;2023-05-19T00:06:06;9.60;99.90
37300;DHT22;23184;51.902;12.836;2023-05-19T00:08:36;9.50;99.90
37300;DHT22;23184;51.902;12.836;2023-05-19T00:11:02;9.60;99.90
37300;DHT22;23184;51.902;12.836;2023-05-19T00:13:28;9.60;99.90
37300;DHT22;23184;51.902;12.836;2023-05-19T00:15:54;9.60;99.90
37300;DHT22;23184;51.902;12.836;2023-05-19T00:18:19;9.60;99.90
37300;DHT22;23184;51.902;12.836;2023-05-19T00:20:45;9.60;99.90
37300;DHT22;23184;51.902;12.836;2023-05-19T00:23:10;9.60;99.90
37300;DHT22;23184;51.902;12.836;2023-05-19T00:25:36;9.50;99.90
37300;DHT22;23184;51.902;12.836;2023-05-19T00:28:02;9.50;99.90
37300;DHT22;23184;51.902;12.836;2023-05-19T00:30:28;9.50;99.90
37300;DHT22;23184;51.902;12.836;2023-05-19T00:32:54;9.40;99.90
37300;DHT22;23184;51.902;12.836;2023-05-19T00:35:20;9.40;99.90
37300;DHT22;23184;51.902;12.836;2023-05-19T00:37:46;9.40;99.90
37300;DHT22;23184;51.902;12.836;2023-05-19T00:40:11;9.40;99.90
37300;DHT22;23184;51.902;12.836;2023-05-19T00:42:37;9.30;99.90
37300;DHT22;23184;51.902;12.836;2023-05-19T00:45:04;9.30;99.90
37300;DHT22;23184;51.902;12.836;2023-05-19T00:47:29;9.30;99.90
37300;DHT22;23184;51.902;12.836;2023-05-19T00:49:55;9.30;99.90
37300;DHT22;23184;51.902;12.836;2023-05-19T00:52:20;9.30;99.90
37300;DHT22;23184;51.902;12.836;2023-05-19T00:54:46;9.30;99.90
37300;DHT22;23184;51.902;12.836;2023-05-19T00:57:13;9.20;99.90
37300;DHT22;23184;51.902;12.836;2023-05-19T00:59:39;9.20;99.90
37300;DHT22;23184;51.902;12.836;2023-05-19T01:02:04;9.20;99.90
37300;DHT22;23184;51.902;12.836;2023-05-19T01:04:31;9.20;99.90
37300;DHT22;23184;51.902;12.836;2023-05-19T01:06:59;9.20;99.90
37300;DHT22;23184;51.902;12.836;2023-05-19T01:09:25;9.20;99.90
37300;DHT22;23184;51.902;12.836;2023-05-19T01:11:51;9.20;99.90
37300;DHT22;23184;51.902;12.836;2023-05-19T01:14:17;9.20;99.90
37300;DHT22;23184;51.902;12.836;2023-05-19T01:16:52;9.20;99.90
37300;DHT22;23184;51.902;12.836;2023-05-19T01:22:19;9.10;99.90
37300;DHT22;23184;51.902;12.836;2023-05-19T01:25:01;9.10;99.90
37300;DHT22;23184;51.902;12.836;2023-05-19T01:30:26;9.10;99.90
37300;DHT22;23184;51.902;12.836;2023-05-19T01:32:56;9.10;99.90
37300;DHT22;23184;51.902;12.836;2023-05-19T01:35:24;9.10;99.90
37300;DHT22;23184;51.902;12.836;2023-05-19T01:37:53;9.10;99.90
37300;DHT22;23184;51.902;12.836;2023-05-19T01:40:20;9.00;99.90
37300;DHT22;23184;51.902;12.836;2023-05-19T01:42:47;9.00;99.90
37300;DHT22;23184;51.902;12.836;2023-05-19T01:45:14;9.00;99.90
37300;DHT22;23184;51.902;12.836;2023-05-19T01:47:42;8.90;99.90
37300;DHT22;23184;51.902;12.836;2023-05-19T01:50:08;8.90;99.90
37300;DHT22;23184;51.902;12.836;2023-05-19T01:52:33;8.80;99.90
37300;DHT22;23184;51.902;12.836;2023-05-19T01:54:59;8.80;99.90
37300;DHT22;23184;51.902;12.836;2023-05-19T02:03:56;8.70;99.90
37300;DHT22;23184;51.902;12.836;2023-05-19T02:09:22;8.60;99.90
37300;DHT22;23184;51.902;12.836;2023-05-19T02:12:03;8.60;99.90
37300;DHT22;23184;51.902;12.836;2023-05-19T02:14:55;8.50;99.90
37300;DHT22;23184;51.902;12.836;2023-05-19T02:17:22;8.50;99.90
37300;DHT22;23184;51.902;12.836;2023-05-19T02:19:51;8.50;99.90
37300;DHT22;23184;51.902;12.836;2023-05-19T02:22:16;8.50;99.90
37300;DHT22;23184;51.902;12.836;2023-05-19T02:24:42;8.40;99.90
37300;DHT22;23184;51.902;12.836;2023-05-19T02:27:09;8.40;99.90
37300;DHT22;23184;51.902;12.836;2023-05-19T02:29:34;8.40;99.90
37300;DHT22;23184;51.902;12.836;2023-05-19T02:32:00;8.40;99.90
37300;DHT22;23184;51.902;12.836;2023-05-19T02:34:26;8.40;99.90
37300;DHT22;23184;51.902;12.836;2023-05-19T02:36:51;8.30;99.90
37300;DHT22;23184;51.902;12.836;2023-05-19T02:39:17;8.30;99.90
37300;DHT22;23184;51.902;12.836;2023-05-19T02:41:42;8.30;99.90
37300;DHT22;23184;51.902;12.836;2023-05-19T02:44:08;8.30;99.90
37300;DHT22;23184;51.902;12.836;2023-05-19T02:46:33;8.20;99.90
37300;DHT22;23184;51.902;12.836;2023-05-19T02:48:59;8.20;99.90
37300;DHT22;23184;51.902;12.836;2023-05-19T02:51:24;8.20;99.90
37300;DHT22;23184;51.902;12.836;2023-05-19T02:53:50;8.20;99.90
37300;DHT22;23184;51.902;12.836;2023-05-19T02:56:16;8.10;99.90
37300;DHT22;23184;51.902;12.836;2023-05-19T02:58:41;8.10;99.90
37300;DHT22;23184;51.902;12.836;2023-05-19T03:01:08;8.00;99.90
37300;DHT22;23184;51.902;12.836;2023-05-19T03:03:34;8.00;99.90
37300;DHT22;23184;51.902;12.836;2023-05-19T03:05:59;8.00;99.90
37300;DHT22;23184;51.902;12.836;2023-05-19T03:08:26;7.90;99.90
37300;DHT22;23184;51.902;12.836;2023-05-19T03:10:52;7.90;99.90
37300;DHT22;23184;51.902;12.836;2023-05-19T03:13:17;7.90;99.90
37300;DHT22;23184;51.902;12.836;2023-05-19T03:15:42;7.80;99.90
37300;DHT22;23184;51.902;12.836;2023-05-19T03:18:09;7.80;99.90
37300;DHT22;23184;51.902;12.836;2023-05-19T03:20:36;7.80;99.90
37300;DHT22;23184;51.902;12.836;2023-05-19T03:23:02;7.70;99.90
37300;DHT22;23184;51.902;12.836;2023-05-19T03:25:28;7.70;99.90
37300;DHT22;23184;51.902;12.836;2023-05-19T03:27:54;7.70;99.90
37300;DHT22;23184;51.902;12.836;2023-05-19T03:30:19;7.70;99.90
37300;DHT22;23184;51.902;12.836;2023-05-19T03:32:45;7.70;99.90
37300;DHT22;23184;51.902;12.836;2023-05-19T03:35:10;7.60;99.90
37300;DHT22;23184;51.902;12.836;2023-05-19T03:37:36;7.60;99.90
37300;DHT22;23184;51.902;12.836;2023-05-19T03:40:01;7.60;99.90
37300;DHT22;23184;51.902;12.836;2023-05-19T03:42:29;7.60;99.90
37300;DHT22;23184;51.902;12.836;2023-05-19T03:44:54;7.60;99.90
37300;DHT22;23184;51.902;12.836;2023-05-19T03:47:20;7.60;99.90
37300;DHT22;23184;51.902;12.836;2023-05-19T03:49:45;7.60;99.90
37300;DHT22;23184;51.902;12.836;2023-05-19T03:52:11;7.60;99.90
37300;DHT22;23184;51.902;12.836;2023-05-19T03:54:37;7.60;99.90
37300;DHT22;23184;51.902;12.836;2023-05-19T03:57:04;7.60;99.90
37300;DHT22;23184;51.902;12.836;2023-05-19T03:59:29;7.60;99.90
37300;DHT22;23184;51.902;12.836;2023-05-19T04:01:55;7.60;99.90
37300;DHT22;23184;51.902;12.836;2023-05-19T04:04:22;7.60;99.90
37300;DHT22;23184;51.902;12.836;2023-05-19T04:06:47;7.60;99.90
37300;DHT22;23184;51.902;12.836;2023-05-19T04:09:14;7.60;99.90
37300;DHT22;23184;51.902;12.836;2023-05-19T04:11:41;7.60;99.90
37300;DHT22;23184;51.902;12.836;2023-05-19T04:14:07;7.60;99.90
37300;DHT22;23184;51.902;12.836;2023-05-19T04:16:33;7.70;99.90
37300;DHT22;23184;51.902;12.836;2023-05-19T04:18:59;7.70;99.90
37300;DHT22;23184;51.902;12.836;2023-05-19T04:21:24;7.70;99.90
37300;DHT22;23184;51.902;12.836;2023-05-19T04:23:50;7.80;99.90
37300;DHT22;23184;51.902;12.836;2023-05-19T04:26:15;7.80;99.90
37300;DHT22;23184;51.902;12.836;2023-05-19T04:28:43;7.90;99.90
37300;DHT22;23184;51.902;12.836;2023-05-19T04:31:09;7.90;99.90
37300;DHT22;23184;51.902;12.836;2023-05-19T04:33:37;8.00;99.90
37300;DHT22;23184;51.902;12.836;2023-05-19T04:36:04;8.10;99.90
37300;DHT22;23184;51.902;12.836;2023-05-19T04:38:33;8.20;99.90
37300;DHT22;23184;51.902;12.836;2023-05-19T04:40:58;8.20;99.90
37300;DHT22;23184;51.902;12.836;2023-05-19T04:43:26;8.30;99.90
37300;DHT22;23184;51.902;12.836;2023-05-19T04:45:52;8.40;99.90
37300;DHT22;23184;51.902;12.836;2023-05-19T04:48:19;8.50;99.90
37300;DHT22;23184;51.902;12.836;2023-05-19T04:50:46;8.50;99.90
37300;DHT22;23184;51.902;12.836;2023-05-19T04:53:13;8.60;99.90
37300;DHT22;23184;51.902;12.836;2023-05-19T04:55:39;8.60;99.90
37300;DHT22;23184;51.902;12.836;2023-05-19T04:58:04;8.60;99.90
37300;DHT22;23184;51.902;12.836;2023-05-19T05:00:31;8.70;99.90
37300;DHT22;23184;51.902;12.836;2023-05-19T05:02:56;8.70;99.90
37300;DHT22;23184;51.902;12.836;2023-05-19T05:05:22;8.70;99.90
37300;DHT22;23184;51.902;12.836;2023-05-19T05:07:48;8.70;99.90
37300;DHT22;23184;51.902;12.836;2023-05-19T05:10:14;8.80;99.90
37300;DHT22;23184;51.902;12.836;2023-05-19T05:12:39;8.80;99.90
37300;DHT22;23184;51.902;12.836;2023-05-19T05:15:05;8.80;99.90
37300;DHT22;23184;51.902;12.836;2023-05-19T05:17:33;8.90;99.90
37300;DHT22;23184;51.902;12.836;2023-05-19T05:20:01;8.90;99.90
37300;DHT22;23184;51.902;12.836;2023-05-19T05:22:28;9.00;99.90
37300;DHT22;23184;51.902;12.836;2023-05-19T05:24:55;9.10;99.90
37300;DHT22;23184;51.902;12.836;2023-05-19T05:27:20;9.20;99.90
37300;DHT22;23184;51.902;12.836;2023-05-19T05:29:46;9.20;99.90
37300;DHT22;23184;51.902;12.836;2023-05-19T05:32:11;9.30;99.90
37300;DHT22;23184;51.902;12.836;2023-05-19T05:34:36;9.40;99.90
37300;DHT22;23184;51.902;12.836;2023-05-19T05:37:04;9.50;99.90
37300;DHT22;23184;51.902;12.836;2023-05-19T05:39:29;9.70;99.90
37300;DHT22;23184;51.902;12.836;2023-05-19T05:41:56;9.80;99.90
37300;DHT22;23184;51.902;12.836;2023-05-19T05:44:21;9.90;99.90
37300;DHT22;23184;51.902;12.836;2023-05-19T05:46:47;10.00;99.90
37300;DHT22;23184;51.902;12.836;2023-05-19T05:49:12;10.10;99.90
37300;DHT22;23184;51.902;12.836;2023-05-19T05:51:38;10.20;99.90
37300;DHT22;23184;51.902;12.836;2023-05-19T05:54:05;10.30;99.90
37300;DHT22;23184;51.902;12.836;2023-05-19T05:56:32;10.40;99.90
37300;DHT22;23184;51.902;12.836;2023-05-19T05:59:01;10.40;99.90
37300;DHT22;23184;51.902;12.836;2023-05-19T06:01:27;10.50;99.90
37300;DHT22;23184;51.902;12.836;2023-05-19T06:03:54;10.60;99.90
37300;DHT22;23184;51.902;12.836;2023-05-19T06:06:20;10.70;99.90
37300;DHT22;23184;51.902;12.836;2023-05-19T06:08:45;10.80;99.90
37300;DHT22;23184;51.902;12.836;2023-05-19T06:11:11;10.80;99.90
37300;DHT22;23184;51.902;12.836;2023-05-19T06:13:37;10.90;99.90
37300;DHT22;23184;51.902;12.836;2023-05-19T06:16:03;11.10;99.90
37300;DHT22;23184;51.902;12.836;2023-05-19T06:18:29;11.10;99.90
37300;DHT22;23184;51.902;12.836;2023-05-19T06:20:55;11.20;99.90
37300;DHT22;23184;51.902;12.836;2023-05-19T06:23:20;11.30;99.90
37300;DHT22;23184;51.902;12.836;2023-05-19T06:25:46;11.40;99.90
37300;DHT22;23184;51.902;12.836;2023-05-19T06:28:11;11.50;99.90
37300;DHT22;23184;51.902;12.836;2023-05-19T06:30:37;11.60;99.90
37300;DHT22;23184;51.902;12.836;2023-05-19T06:33:03;11.80;99.90
37300;DHT22;23184;51.902;12.836;2023-05-19T06:35:29;12.00;99.90
37300;DHT22;23184;51.902;12.836;2023-05-19T06:37:55;12.20;99.90
37300;DHT22;23184;51.902;12.836;2023-05-19T06:40:21;12.30;99.90
37300;DHT22;23184;51.902;12.836;2023-05-19T06:42:46;12.40;99.90
37300;DHT22;23184;51.902;12.836;2023-05-19T06:45:12;12.60;99.90
37300;DHT22;23184;51.902;12.836;2023-05-19T06:47:37;12.90;99.90
37300;DHT22;23184;51.902;12.836;2023-05-19T06:50:07;13.20;99.90
37300;DHT22;23184;51.902;12.836;2023-05-19T06:52:32;13.50;99.90
37300;DHT22;23184;51.902;12.836;2023-05-19T06:54:58;14.00;99.90
37300;DHT22;23184;51.902;12.836;2023-05-19T06:57:23;14.50;99.90
37300;DHT22;23184;51.902;12.836;2023-05-19T06:59:49;14.90;99.90
37300;DHT22;23184;51.902;12.836;2023-05-19T07:02:14;15.20;99.90
37300;DHT22;23184;51.902;12.836;2023-05-19T07:04:40;15.40;99.90
37300;DHT22;23184;51.902;12.836;2023-05-19T07:07:06;15.50;99.90
37300;DHT22;23184;51.902;12.836;2023-05-19T07:09:32;15.90;99.90
37300;DHT22;23184;51.902;12.836;2023-05-19T07:11:57;16.20;99.90
37300;DHT22;23184;51.902;12.836;2023-05-19T07:14:23;16.50;99.90
37300;DHT22;23184;51.902;12.836;2023-05-19T07:16:49;16.80;99.90
37300;DHT22;23184;51.902;12.836;2023-05-19T07:19:14;16.90;99.90
37300;DHT22;23184;51.902;12.836;2023-05-19T07:21:40;17.00;99.90
37300;DHT22;23184;51.902;12.836;2023-05-19T07:24:06;17.20;99.90
37300;DHT22;23184;51.902;12.836;2023-05-19T07:26:32;17.50;99.90
37300;DHT22;23184;51.902;12.836;2023-05-19T07:28:58;17.80;99.90
37300;DHT22;23184;51.902;12.836;2023-05-19T07:31:23;17.90;99.90
37300;DHT22;23184;51.902;12.836;2023-05-19T07:33:49;18.00;99.90
37300;DHT22;23184;51.902;12.836;2023-05-19T07:36:14;17.90;99.90
37300;DHT22;23184;51.902;12.836;2023-05-19T07:38:40;18.00;99.90
37300;DHT22;23184;51.902;12.836;2023-05-19T07:41:06;18.30;99.90
37300;DHT22;23184;51.902;12.836;2023-05-19T07:43:31;18.30;99.90
37300;DHT22;23184;51.902;12.836;2023-05-19T07:45:57;18.30;99.90
37300;DHT22;23184;51.902;12.836;2023-05-19T07:48:22;18.50;99.90
37300;DHT22;23184;51.902;12.836;2023-05-19T07:50:50;18.30;99.90
37300;DHT22;23184;51.902;12.836;2023-05-19T07:53:15;18.30;99.90
37300;DHT22;23184;51.902;12.836;2023-05-19T07:55:41;18.40;99.90
37300;DHT22;23184;51.902;12.836;2023-05-19T07:58:06;18.20;99.40
37300;DHT22;23184;51.902;12.836;2023-05-19T08:00:32;18.40;99.00
37300;DHT22;23184;51.902;12.836;2023-05-19T08:02:58;18.70;95.60
37300;DHT22;23184;51.902;12.836;2023-05-19T08:05:24;19.20;95.90
37300;DHT22;23184;51.902;12.836;2023-05-19T08:07:50;19.50;93.00
37300;DHT22;23184;51.902;12.836;2023-05-19T08:10:16;19.40;91.50
37300;DHT22;23184;51.902;12.836;2023-05-19T08:12:41;19.50;90.50
37300;DHT22;23184;51.902;12.836;2023-05-19T08:15:08;19.40;88.80
37300;DHT22;23184;51.902;12.836;2023-05-19T08:17:36;19.40;90.60
37300;DHT22;23184;51.902;12.836;2023-05-19T08:20:01;19.10;90.30
37300;DHT22;23184;51.902;12.836;2023-05-19T08:22:28;19.30;90.30
37300;DHT22;23184;51.902;12.836;2023-05-19T08:24:53;19.20;86.80
37300;DHT22;23184;51.902;12.836;2023-05-19T08:27:19;19.30;91.30
37300;DHT22;23184;51.902;12.836;2023-05-19T08:29:44;19.50;85.60
37300;DHT22;23184;51.902;12.836;2023-05-19T08:32:10;19.80;87.70
37300;DHT22;23184;51.902;12.836;2023-05-19T08:34:35;19.50;88.80
37300;DHT22;23184;51.902;12.836;2023-05-19T08:37:01;19.00;91.20
37300;DHT22;23184;51.902;12.836;2023-05-19T08:39:27;19.30;90.30
37300;DHT22;23184;51.902;12.836;2023-05-19T08:41:53;20.30;86.10
37300;DHT22;23184;51.902;12.836;2023-05-19T08:44:18;20.90;76.70
37300;DHT22;23184;51.902;12.836;2023-05-19T08:46:46;20.90;71.40
37300;DHT22;23184;51.902;12.836;2023-05-19T08:49:12;20.90;73.30
37300;DHT22;23184;51.902;12.836;2023-05-19T08:54:19;21.20;74.20
37300;DHT22;23184;51.902;12.836;2023-05-19T08:56:46;21.00;68.90
37300;DHT22;23184;51.902;12.836;2023-05-19T08:59:13;20.90;69.20
37300;DHT22;23184;51.902;12.836;2023-05-19T09:01:42;20.40;72.40
37300;DHT22;23184;51.902;12.836;2023-05-19T09:04:08;20.50;71.60
37300;DHT22;23184;51.902;12.836;2023-05-19T09:06:34;20.90;72.80
37300;DHT22;23184;51.902;12.836;2023-05-19T09:08:59;21.00;73.50
37300;DHT22;23184;51.902;12.836;2023-05-19T09:11:25;20.80;71.30
37300;DHT22;23184;51.902;12.836;2023-05-19T09:13:51;20.90;74.40
37300;DHT22;23184;51.902;12.836;2023-05-19T09:16:16;21.20;74.70
37300;DHT22;23184;51.902;12.836;2023-05-19T09:18:55;21.60;70.20
37300;DHT22;23184;51.902;12.836;2023-05-19T09:21:29;21.80;68.00
37300;DHT22;23184;51.902;12.836;2023-05-19T09:23:56;20.80;73.10
37300;DHT22;23184;51.902;12.836;2023-05-19T09:26:22;20.50;72.40
37300;DHT22;23184;51.902;12.836;2023-05-19T09:28:48;20.70;75.10
37300;DHT22;23184;51.902;12.836;2023-05-19T09:31:13;20.40;72.80
37300;DHT22;23184;51.902;12.836;2023-05-19T09:33:40;20.80;73.20
37300;DHT22;23184;51.902;12.836;2023-05-19T09:36:09;21.20;70.30
37300;DHT22;23184;51.902;12.836;2023-05-19T09:38:39;21.50;72.10
37300;DHT22;23184;51.902;12.836;2023-05-19T09:41:06;21.30;68.60
37300;DHT22;23184;51.902;12.836;2023-05-19T09:43:33;21.10;67.60
37300;DHT22;23184;51.902;12.836;2023-05-19T09:46:01;20.90;69.30
37300;DHT22;23184;51.902;12.836;2023-05-19T09:48:27;21.40;68.80
37300;DHT22;23184;51.902;12.836;2023-05-19T09:50:53;21.30;70.20
37300;DHT22;23184;51.902;12.836;2023-05-19T09:53:20;21.50;65.90
37300;DHT22;23184;51.902;12.836;2023-05-19T09:55:46;22.30;63.90
37300;DHT22;23184;51.902;12.836;2023-05-19T09:58:18;22.70;63.30
37300;DHT22;23184;51.902;12.836;2023-05-19T10:00:45;22.70;62.50
37300;DHT22;23184;51.902;12.836;2023-05-19T10:03:11;22.60;61.80
37300;DHT22;23184;51.902;12.836;2023-05-19T10:05:37;23.20;61.60
37300;DHT22;23184;51.902;12.836;2023-05-19T10:08:04;23.60;60.70
37300;DHT22;23184;51.902;12.836;2023-05-19T10:10:32;23.50;60.90
37300;DHT22;23184;51.902;12.836;2023-05-19T10:12:58;23.50;62.00
37300;DHT22;23184;51.902;12.836;2023-05-19T10:15:25;23.10;60.50
37300;DHT22;23184;51.902;12.836;2023-05-19T10:17:51;22.50;62.10
37300;DHT22;23184;51.902;12.836;2023-05-19T10:20:17;22.00;66.30
37300;DHT22;23184;51.902;12.836;2023-05-19T10:22:44;21.50;65.70
37300;DHT22;23184;51.902;12.836;2023-05-19T10:25:11;21.10;67.50
37300;DHT22;23184;51.902;12.836;2023-05-19T10:27:41;21.00;68.10
37300;DHT22;23184;51.902;12.836;2023-05-19T10:30:15;20.90;70.40
37300;DHT22;23184;51.902;12.836;2023-05-19T10:32:43;21.10;68.90
37300;DHT22;23184;51.902;12.836;2023-05-19T10:35:23;21.80;68.40
37300;DHT22;23184;51.902;12.836;2023-05-19T10:38:09;22.60;65.60
37300;DHT22;23184;51.902;12.836;2023-05-19T10:40:52;23.40;65.20
37300;DHT22;23184;51.902;12.836;2023-05-19T10:43:38;23.30;62.60
37300;DHT22;23184;51.902;12.836;2023-05-19T10:46:06;23.90;63.10
37300;DHT22;23184;51.902;12.836;2023-05-19T10:48:32;23.30;63.10
37300;DHT22;23184;51.902;12.836;2023-05-19T10:51:01;23.90;61.70
37300;DHT22;23184;51.902;12.836;2023-05-19T10:53:31;24.80;60.40
37300;DHT22;23184;51.902;12.836;2023-05-19T10:55:56;24.50;62.00
37300;DHT22;23184;51.902;12.836;2023-05-19T11:01:15;23.30;61.50
37300;DHT22;23184;51.902;12.836;2023-05-19T11:03:55;22.90;62.50
37300;DHT22;23184;51.902;12.836;2023-05-19T11:06:28;22.50;63.30
37300;DHT22;23184;51.902;12.836;2023-05-19T11:08:59;21.70;64.20
37300;DHT22;23184;51.902;12.836;2023-05-19T11:11:26;21.50;65.50
37300;DHT22;23184;51.902;12.836;2023-05-19T11:14:10;21.50;67.10
37300;DHT22;23184;51.902;12.836;2023-05-19T11:16:38;21.80;66.40
37300;DHT22;23184;51.902;12.836;2023-05-19T11:19:06;22.80;63.10
37300;DHT22;23184;51.902;12.836;2023-05-19T11:21:48;23.70;64.70
37300;DHT22;23184;51.902;12.836;2023-05-19T11:27:25;24.60;60.60
37300;DHT22;23184;51.902;12.836;2023-05-19T11:29:52;25.80;58.90
37300;DHT22;23184;51.902;12.836;2023-05-19T11:34:48;26.90;57.40
37300;DHT22;23184;51.902;12.836;2023-05-19T11:37:14;26.30;56.50
37300;DHT22;23184;51.902;12.836;2023-05-19T11:39:40;25.90;56.80
37300;DHT22;23184;51.902;12.836;2023-05-19T11:42:08;24.80;56.30
37300;DHT22;23184;51.902;12.836;2023-05-19T11:44:34;24.20;59.10
37300;DHT22;23184;51.902;12.836;2023-05-19T11:47:00;24.50;59.00
37300;DHT22;23184;51.902;12.836;2023-05-19T11:49:29;25.20;58.90
37300;DHT22;23184;51.902;12.836;2023-05-19T11:51:54;26.30;56.50
37300;DHT22;23184;51.902;12.836;2023-05-19T11:54:20;25.90;55.00
37300;DHT22;23184;51.902;12.836;2023-05-19T11:56:46;26.70;54.20
37300;DHT22;23184;51.902;12.836;2023-05-19T11:59:11;27.10;53.10
37300;DHT22;23184;51.902;12.836;2023-05-19T12:01:37;26.40;51.00
37300;DHT22;23184;51.902;12.836;2023-05-19T12:04:08;26.70;52.50
37300;DHT22;23184;51.902;12.836;2023-05-19T12:06:34;26.60;54.30
37300;DHT22;23184;51.902;12.836;2023-05-19T12:09:01;26.80;50.80
37300;DHT22;23184;51.902;12.836;2023-05-19T12:11:29;27.50;51.10
37300;DHT22;23184;51.902;12.836;2023-05-19T12:13:58;27.70;52.80
37300;DHT22;23184;51.902;12.836;2023-05-19T12:16:32;28.50;53.40
37300;DHT22;23184;51.902;12.836;2023-05-19T12:18:58;27.50;50.50
37300;DHT22;23184;51.902;12.836;2023-05-19T12:21:24;27.40;53.00
37300;DHT22;23184;51.902;12.836;2023-05-19T12:23:49;27.30;50.90
37300;DHT22;23184;51.902;12.836;2023-05-19T12:26:15;26.60;53.60
37300;DHT22;23184;51.902;12.836;2023-05-19T12:28:47;25.40;54.30
37300;DHT22;23184;51.902;12.836;2023-05-19T12:31:15;24.90;54.80
37300;DHT22;23184;51.902;12.836;2023-05-19T12:33:41;25.20;55.80
37300;DHT22;23184;51.902;12.836;2023-05-19T12:36:06;25.50;55.30
37300;DHT22;23184;51.902;12.836;2023-05-19T12:38:33;24.20;56.00
37300;DHT22;23184;51.902;12.836;2023-05-19T12:41:01;23.40;59.30
37300;DHT22;23184;51.902;12.836;2023-05-19T12:43:27;22.90;59.30
37300;DHT22;23184;51.902;12.836;2023-05-19T12:45:52;22.10;62.20
37300;DHT22;23184;51.902;12.836;2023-05-19T12:48:20;21.50;63.40
37300;DHT22;23184;51.902;12.836;2023-05-19T12:50:47;21.30;64.00
37300;DHT22;23184;51.902;12.836;2023-05-19T12:53:13;21.30;65.30
37300;DHT22;23184;51.902;12.836;2023-05-19T12:55:43;21.30;63.10
37300;DHT22;23184;51.902;12.836;2023-05-19T12:58:10;21.50;66.00
37300;DHT22;23184;51.902;12.836;2023-05-19T13:00:57;21.80;64.20
37300;DHT22;23184;51.902;12.836;2023-05-19T13:03:24;21.80;62.70
37300;DHT22;23184;51.902;12.836;2023-05-19T13:05:50;21.90;60.30
37300;DHT22;23184;51.902;12.836;2023-05-19T13:08:17;22.00;62.30
37300;DHT22;23184;51.902;12.836;2023-05-19T13:10:45;21.90;60.40
37300;DHT22;23184;51.902;12.836;2023-05-19T13:13:11;22.30;62.00
37300;DHT22;23184;51.902;12.836;2023-05-19T13:15:40;22.60;61.10
37300;DHT22;23184;51.902;12.836;2023-05-19T13:18:07;22.50;62.60
37300;DHT22;23184;51.902;12.836;2023-05-19T13:20:33;22.10;64.20
37300;DHT22;23184;51.902;12.836;2023-05-19T13:22:59;21.80;62.40
37300;DHT22;23184;51.902;12.836;2023-05-19T13:25:25;22.70;63.70
37300;DHT22;23184;51.902;12.836;2023-05-19T13:27:51;23.70;61.80
37300;DHT22;23184;51.902;12.836;2023-05-19T13:30:18;24.40;60.00
37300;DHT22;23184;51.902;12.836;2023-05-19T13:32:44;25.20;57.20
37300;DHT22;23184;51.902;12.836;2023-05-19T13:35:10;25.20;55.20
37300;DHT22;23184;51.902;12.836;2023-05-19T13:37:36;24.90;55.80
37300;DHT22;23184;51.902;12.836;2023-05-19T13:40:02;25.40;56.40
37300;DHT22;23184;51.902;12.836;2023-05-19T13:42:28;23.60;56.50
37300;DHT22;23184;51.902;12.836;2023-05-19T13:44:54;24.00;58.90
37300;DHT22;23184;51.902;12.836;2023-05-19T13:47:23;24.80;55.80
37300;DHT22;23184;51.902;12.836;2023-05-19T13:49:49;25.20;55.20
37300;DHT22;23184;51.902;12.836;2023-05-19T13:52:15;25.50;55.30
37300;DHT22;23184;51.902;12.836;2023-05-19T13:54:40;25.30;53.70
37300;DHT22;23184;51.902;12.836;2023-05-19T13:57:06;26.00;54.50
37300;DHT22;23184;51.902;12.836;2023-05-19T13:59:31;26.20;53.10
37300;DHT22;23184;51.902;12.836;2023-05-19T14:01:57;26.30;53.10
37300;DHT22;23184;51.902;12.836;2023-05-19T14:04:23;26.20;55.40
37300;DHT22;23184;51.902;12.836;2023-05-19T14:06:49;26.30;55.70
37300;DHT22;23184;51.902;12.836;2023-05-19T14:09:14;25.30;55.00
37300;DHT22;23184;51.902;12.836;2023-05-19T14:11:41;24.00;55.60
37300;DHT22;23184;51.902;12.836;2023-05-19T14:14:06;23.00;57.50
37300;DHT22;23184;51.902;12.836;2023-05-19T14:16:32;22.30;60.00
37300;DHT22;23184;51.902;12.836;2023-05-19T14:18:58;22.10;61.60
37300;DHT22;23184;51.902;12.836;2023-05-19T14:21:23;22.40;60.80
37300;DHT22;23184;51.902;12.836;2023-05-19T14:23:49;23.10;60.20
37300;DHT22;23184;51.902;12.836;2023-05-19T14:26:14;23.00;61.20
37300;DHT22;23184;51.902;12.836;2023-05-19T14:28:40;22.90;61.00
37300;DHT22;23184;51.902;12.836;2023-05-19T14:31:12;22.30;60.50
37300;DHT22;23184;51.902;12.836;2023-05-19T14:33:39;21.70;61.90
37300;DHT22;23184;51.902;12.836;2023-05-19T14:36:06;21.40;63.70
37300;DHT22;23184;51.902;12.836;2023-05-19T14:38:31;20.90;64.50
37300;DHT22;23184;51.902;12.836;2023-05-19T14:40:57;20.60;64.60
37300;DHT22;23184;51.902;12.836;2023-05-19T14:43:22;20.40;66.30
37300;DHT22;23184;51.902;12.836;2023-05-19T14:45:48;20.60;65.60
37300;DHT22;23184;51.902;12.836;2023-05-19T14:48:14;21.40;64.80
37300;DHT22;23184;51.902;12.836;2023-05-19T14:50:40;22.30;62.50
37300;DHT22;23184;51.902;12.836;2023-05-19T14:53:05;22.70;63.10
37300;DHT22;23184;51.902;12.836;2023-05-19T14:55:31;23.30;60.30
37300;DHT22;23184;51.902;12.836;2023-05-19T14:57:56;22.90;61.00
37300;DHT22;23184;51.902;12.836;2023-05-19T15:00:22;22.20;61.40
37300;DHT22;23184;51.902;12.836;2023-05-19T15:02:50;21.30;63.30
37300;DHT22;23184;51.902;12.836;2023-05-19T15:05:16;20.60;65.20
37300;DHT22;23184;51.902;12.836;2023-05-19T15:07:41;20.30;66.20
37300;DHT22;23184;51.902;12.836;2023-05-19T15:10:07;20.10;68.40
37300;DHT22;23184;51.902;12.836;2023-05-19T15:12:33;19.80;69.20
37300;DHT22;23184;51.902;12.836;2023-05-19T15:14:59;20.00;69.30
37300;DHT22;23184;51.902;12.836;2023-05-19T15:17:24;20.40;68.80
37300;DHT22;23184;51.902;12.836;2023-05-19T15:19:49;20.70;68.90
37300;DHT22;23184;51.902;12.836;2023-05-19T15:22:15;20.70;66.90
37300;DHT22;23184;51.902;12.836;2023-05-19T15:24:40;20.40;67.50
37300;DHT22;23184;51.902;12.836;2023-05-19T15:27:07;20.20;69.40
37300;DHT22;23184;51.902;12.836;2023-05-19T15:29:33;19.90;69.00
37300;DHT22;23184;51.902;12.836;2023-05-19T15:31:59;19.80;69.70
37300;DHT22;23184;51.902;12.836;2023-05-19T15:34:25;19.70;70.30
37300;DHT22;23184;51.902;12.836;2023-05-19T15:36:50;19.70;70.50
37300;DHT22;23184;51.902;12.836;2023-05-19T15:39:16;19.50;71.90
37300;DHT22;23184;51.902;12.836;2023-05-19T15:41:41;19.50;71.90
37300;DHT22;23184;51.902;12.836;2023-05-19T15:44:07;19.40;73.90
37300;DHT22;23184;51.902;12.836;2023-05-19T15:46:32;19.30;75.90